Terminal Aerodrome Forecast
Issued by NWS Lake Charles, LA

Home | Current Version | Previous Version | Text Only | Print | Product List | Glossary On
Versions: 1 2 3 4 5 6 7 8 9 10 11 12 13 14 15 16 17 18
000
FTUS44 KLCH 231700
TAFLCH
TAF
KLCH 231732Z 2318/2418 03005KT P6SM VCSH BKN035
     FM232100 VRB05KT P6SM VCTS SCT030CB BKN050
      TEMPO 2321/2401 VRB10G20KT 2SM +TSRA BKN020CB
     FM240300 00000KT P6SM SCT040 BKN100=

USA.gov is the U.S. government's official web portal to all federal, state and local government web resources and services.